sensor_id;sensor_type;location;lat;lon;timestamp;pressure;altitude;pressure_sealevel;temperature;humidity
39223;BME280;24936;46.328;11.026;2023-11-18T00:00:26;94694.25;;;-2.88;100.00
39223;BME280;24936;46.328;11.026;2023-11-18T00:02:52;94698.66;;;-3.17;100.00
39223;BME280;24936;46.328;11.026;2023-11-18T00:05:17;94698.03;;;-3.25;100.00
39223;BME280;24936;46.328;11.026;2023-11-18T00:07:43;94698.69;;;-2.68;100.00
39223;BME280;24936;46.328;11.026;2023-11-18T00:10:09;94708.56;;;-2.81;100.00
39223;BME280;24936;46.328;11.026;2023-11-18T00:12:35;94713.78;;;-2.82;100.00
39223;BME280;24936;46.328;11.026;2023-11-18T00:15:02;94708.22;;;-2.46;100.00
39223;BME280;24936;46.328;11.026;2023-11-18T00:17:29;94708.94;;;-2.42;100.00
39223;BME280;24936;46.328;11.026;2023-11-18T00:19:55;94703.97;;;-2.23;100.00
39223;BME280;24936;46.328;11.026;2023-11-18T00:22:21;94706.78;;;-2.53;100.00
39223;BME280;24936;46.328;11.026;2023-11-18T00:24:46;94698.19;;;-2.54;100.00
39223;BME280;24936;46.328;11.026;2023-11-18T00:27:11;94702.59;;;-1.88;100.00
39223;BME280;24936;46.328;11.026;2023-11-18T00:29:40;94708.06;;;-2.18;100.00
39223;BME280;24936;46.328;11.026;2023-11-18T00:32:06;94705.00;;;-2.29;100.00
39223;BME280;24936;46.328;11.026;2023-11-18T00:34:32;94703.06;;;-2.46;100.00
39223;BME280;24936;46.328;11.026;2023-11-18T00:36:58;94710.97;;;-2.51;100.00
39223;BME280;24936;46.328;11.026;2023-11-18T00:39:24;94715.16;;;-2.48;100.00
39223;BME280;24936;46.328;11.026;2023-11-18T00:41:50;94720.09;;;-2.66;100.00
39223;BME280;24936;46.328;11.026;2023-11-18T00:44:15;94733.03;;;-2.93;100.00
39223;BME280;24936;46.328;11.026;2023-11-18T00:46:41;94740.25;;;-3.02;100.00
39223;BME280;24936;46.328;11.026;2023-11-18T00:49:07;94743.84;;;-2.83;100.00
39223;BME280;24936;46.328;11.026;2023-11-18T00:51:32;94746.81;;;-2.94;100.00
39223;BME280;24936;46.328;11.026;2023-11-18T00:53:58;94749.66;;;-3.28;100.00
39223;BME280;24936;46.328;11.026;2023-11-18T00:56:26;94758.38;;;-3.32;100.00
39223;BME280;24936;46.328;11.026;2023-11-18T00:58:51;94755.66;;;-3.28;100.00
39223;BME280;24936;46.328;11.026;2023-11-18T01:01:17;94765.94;;;-3.28;100.00
39223;BME280;24936;46.328;11.026;2023-11-18T01:03:44;94767.03;;;-3.35;100.00
39223;BME280;24936;46.328;11.026;2023-11-18T01:06:10;94764.31;;;-3.57;100.00
39223;BME280;24936;46.328;11.026;2023-11-18T01:08:35;94757.88;;;-3.44;100.00
39223;BME280;24936;46.328;11.026;2023-11-18T01:11:01;94760.34;;;-3.41;100.00
39223;BME280;24936;46.328;11.026;2023-11-18T01:13:26;94754.19;;;-3.35;100.00
39223;BME280;24936;46.328;11.026;2023-11-18T01:15:53;94764.06;;;-3.23;100.00
39223;BME280;24936;46.328;11.026;2023-11-18T01:18:18;94756.47;;;-3.27;100.00
39223;BME280;24936;46.328;11.026;2023-11-18T01:20:44;94760.97;;;-3.34;100.00
39223;BME280;24936;46.328;11.026;2023-11-18T01:23:10;94770.94;;;-3.23;100.00
39223;BME280;24936;46.328;11.026;2023-11-18T01:25:35;94761.34;;;-3.18;100.00
39223;BME280;24936;46.328;11.026;2023-11-18T01:28:00;94769.97;;;-3.19;100.00
39223;BME280;24936;46.328;11.026;2023-11-18T01:30:26;94776.56;;;-3.12;100.00
39223;BME280;24936;46.328;11.026;2023-11-18T01:32:52;94774.53;;;-3.00;100.00
39223;BME280;24936;46.328;11.026;2023-11-18T01:35:17;94782.75;;;-3.16;100.00
39223;BME280;24936;46.328;11.026;2023-11-18T01:37:44;94784.13;;;-3.32;100.00
39223;BME280;24936;46.328;11.026;2023-11-18T01:40:10;94789.34;;;-3.35;100.00
39223;BME280;24936;46.328;11.026;2023-11-18T01:42:44;94781.53;;;-3.32;100.00
39223;BME280;24936;46.328;11.026;2023-11-18T01:45:12;94781.53;;;-3.32;100.00
39223;BME280;24936;46.328;11.026;2023-11-18T01:47:39;94795.25;;;-3.32;100.00
39223;BME280;24936;46.328;11.026;2023-11-18T01:50:06;94805.75;;;-2.84;100.00
39223;BME280;24936;46.328;11.026;2023-11-18T01:52:34;94807.84;;;-2.70;100.00
39223;BME280;24936;46.328;11.026;2023-11-18T01:55:00;94814.38;;;-2.85;100.00
39223;BME280;24936;46.328;11.026;2023-11-18T01:57:26;94817.91;;;-2.88;100.00
39223;BME280;24936;46.328;11.026;2023-11-18T01:59:53;94822.44;;;-2.69;100.00
39223;BME280;24936;46.328;11.026;2023-11-18T02:02:19;94821.41;;;-2.90;100.00
39223;BME280;24936;46.328;11.026;2023-11-18T02:04:46;94826.53;;;-2.89;100.00
39223;BME280;24936;46.328;11.026;2023-11-18T02:07:13;94828.09;;;-2.85;100.00
39223;BME280;24936;46.328;11.026;2023-11-18T02:09:41;94821.22;;;-2.84;100.00
39223;BME280;24936;46.328;11.026;2023-11-18T02:14:53;94826.69;;;-2.94;100.00
39223;BME280;24936;46.328;11.026;2023-11-18T02:17:21;94826.69;;;-2.94;100.00
39223;BME280;24936;46.328;11.026;2023-11-18T02:19:52;94818.56;;;-2.83;100.00
39223;BME280;24936;46.328;11.026;2023-11-18T02:22:18;94813.66;;;-2.89;100.00
39223;BME280;24936;46.328;11.026;2023-11-18T02:24:44;94816.63;;;-3.01;100.00
39223;BME280;24936;46.328;11.026;2023-11-18T02:27:09;94814.81;;;-2.99;100.00
39223;BME280;24936;46.328;11.026;2023-11-18T02:29:41;94808.44;;;-3.14;100.00
39223;BME280;24936;46.328;11.026;2023-11-18T02:32:30;94801.69;;;-3.18;100.00
39223;BME280;24936;46.328;11.026;2023-11-18T02:35:11;94799.66;;;-2.82;100.00
39223;BME280;24936;46.328;11.026;2023-11-18T02:37:44;94803.88;;;-2.54;100.00
39223;BME280;24936;46.328;11.026;2023-11-18T02:40:12;94800.66;;;-2.35;100.00
39223;BME280;24936;46.328;11.026;2023-11-18T02:42:43;94810.09;;;-2.34;100.00
39223;BME280;24936;46.328;11.026;2023-11-18T02:45:11;94811.38;;;-2.22;100.00
39223;BME280;24936;46.328;11.026;2023-11-18T02:47:43;94806.09;;;-2.19;100.00
39223;BME280;24936;46.328;11.026;2023-11-18T02:50:09;94817.94;;;-2.13;100.00
39223;BME280;24936;46.328;11.026;2023-11-18T02:52:40;94814.91;;;-2.25;100.00
39223;BME280;24936;46.328;11.026;2023-11-18T02:55:08;94825.28;;;-2.26;100.00
39223;BME280;24936;46.328;11.026;2023-11-18T02:57:38;94830.63;;;-2.31;100.00
39223;BME280;24936;46.328;11.026;2023-11-18T03:00:05;94825.72;;;-2.39;100.00
39223;BME280;24936;46.328;11.026;2023-11-18T03:02:33;94821.72;;;-2.48;100.00
39223;BME280;24936;46.328;11.026;2023-11-18T03:04:59;94835.22;;;-2.66;100.00
39223;BME280;24936;46.328;11.026;2023-11-18T03:07:25;94837.47;;;-2.82;100.00
39223;BME280;24936;46.328;11.026;2023-11-18T03:09:52;94830.78;;;-2.88;100.00
39223;BME280;24936;46.328;11.026;2023-11-18T03:12:18;94829.94;;;-2.88;100.00
39223;BME280;24936;46.328;11.026;2023-11-18T03:14:43;94835.25;;;-2.93;100.00
39223;BME280;24936;46.328;11.026;2023-11-18T03:17:09;94827.97;;;-2.80;100.00
39223;BME280;24936;46.328;11.026;2023-11-18T03:19:35;94840.06;;;-2.57;100.00
39223;BME280;24936;46.328;11.026;2023-11-18T03:22:01;94846.81;;;-2.80;100.00
39223;BME280;24936;46.328;11.026;2023-11-18T03:24:27;94845.63;;;-3.23;100.00
39223;BME280;24936;46.328;11.026;2023-11-18T03:26:56;94849.41;;;-3.63;100.00
39223;BME280;24936;46.328;11.026;2023-11-18T03:29:21;94848.56;;;-3.64;100.00
39223;BME280;24936;46.328;11.026;2023-11-18T03:31:48;94864.69;;;-3.89;100.00
39223;BME280;24936;46.328;11.026;2023-11-18T03:34:15;94852.22;;;-4.03;100.00
39223;BME280;24936;46.328;11.026;2023-11-18T03:36:41;94862.47;;;-4.01;100.00
39223;BME280;24936;46.328;11.026;2023-11-18T03:39:06;94861.13;;;-4.15;100.00
39223;BME280;24936;46.328;11.026;2023-11-18T03:41:32;94863.69;;;-4.15;100.00
39223;BME280;24936;46.328;11.026;2023-11-18T03:43:57;94863.81;;;-4.19;100.00
39223;BME280;24936;46.328;11.026;2023-11-18T03:46:23;94866.25;;;-4.15;100.00
39223;BME280;24936;46.328;11.026;2023-11-18T03:48:48;94863.56;;;-4.10;100.00
39223;BME280;24936;46.328;11.026;2023-11-18T03:51:14;94867.94;;;-4.12;100.00
39223;BME280;24936;46.328;11.026;2023-11-18T03:53:42;94875.84;;;-4.20;100.00
39223;BME280;24936;46.328;11.026;2023-11-18T03:56:08;94865.66;;;-4.24;100.00
39223;BME280;24936;46.328;11.026;2023-11-18T03:58:34;94875.75;;;-4.17;100.00
39223;BME280;24936;46.328;11.026;2023-11-18T04:01:01;94881.47;;;-4.07;100.00
39223;BME280;24936;46.328;11.026;2023-11-18T04:03:27;94872.00;;;-4.05;100.00
39223;BME280;24936;46.328;11.026;2023-11-18T04:05:52;94882.84;;;-3.93;100.00
39223;BME280;24936;46.328;11.026;2023-11-18T04:08:18;94877.31;;;-4.11;100.00
39223;BME280;24936;46.328;11.026;2023-11-18T04:10:43;94884.91;;;-4.06;100.00
39223;BME280;24936;46.328;11.026;2023-11-18T04:13:09;94892.97;;;-3.87;100.00
39223;BME280;24936;46.328;11.026;2023-11-18T04:15:34;94887.53;;;-3.76;100.00
39223;BME280;24936;46.328;11.026;2023-11-18T04:18:00;94896.59;;;-3.64;100.00
39223;BME280;24936;46.328;11.026;2023-11-18T04:20:26;94891.38;;;-3.61;100.00
39223;BME280;24936;46.328;11.026;2023-11-18T04:22:53;94902.19;;;-3.80;100.00
39223;BME280;24936;46.328;11.026;2023-11-18T04:25:19;94894.81;;;-3.92;100.00
39223;BME280;24936;46.328;11.026;2023-11-18T04:27:46;94890.63;;;-3.96;100.00
39223;BME280;24936;46.328;11.026;2023-11-18T04:30:12;94893.19;;;-3.96;100.00
39223;BME280;24936;46.328;11.026;2023-11-18T04:32:38;94888.69;;;-3.88;100.00
39223;BME280;24936;46.328;11.026;2023-11-18T04:35:03;94889.53;;;-3.88;100.00
39223;BME280;24936;46.328;11.026;2023-11-18T04:37:33;94888.06;;;-3.96;100.00
39223;BME280;24936;46.328;11.026;2023-11-18T04:40:00;94883.38;;;-3.82;100.00
39223;BME280;24936;46.328;11.026;2023-11-18T04:42:25;94877.09;;;-3.72;100.00
39223;BME280;24936;46.328;11.026;2023-11-18T04:44:50;94878.16;;;-3.49;100.00
39223;BME280;24936;46.328;11.026;2023-11-18T04:47:16;94876.69;;;-3.58;100.00
39223;BME280;24936;46.328;11.026;2023-11-18T04:49:43;94881.81;;;-3.58;100.00
39223;BME280;24936;46.328;11.026;2023-11-18T04:52:09;94879.47;;;-3.65;100.00
39223;BME280;24936;46.328;11.026;2023-11-18T04:54:35;94892.41;;;-3.67;100.00
39223;BME280;24936;46.328;11.026;2023-11-18T04:57:01;94884.94;;;-3.76;100.00
39223;BME280;24936;46.328;11.026;2023-11-18T04:59:26;94889.59;;;-3.89;100.00
39223;BME280;24936;46.328;11.026;2023-11-18T05:01:52;94887.97;;;-3.93;100.00
39223;BME280;24936;46.328;11.026;2023-11-18T05:04:18;94889.19;;;-4.07;100.00
39223;BME280;24936;46.328;11.026;2023-11-18T05:06:44;94887.03;;;-4.22;100.00
39223;BME280;24936;46.328;11.026;2023-11-18T05:09:09;94885.13;;;-4.16;100.00
39223;BME280;24936;46.328;11.026;2023-11-18T05:11:35;94887.91;;;-4.22;100.00
39223;BME280;24936;46.328;11.026;2023-11-18T05:14:01;94890.47;;;-4.22;100.00
39223;BME280;24936;46.328;11.026;2023-11-18T05:16:29;94894.41;;;-4.10;100.00
39223;BME280;24936;46.328;11.026;2023-11-18T05:18:54;94901.44;;;-4.15;100.00
39223;BME280;24936;46.328;11.026;2023-11-18T05:21:20;94906.78;;;-4.24;100.00
39223;BME280;24936;46.328;11.026;2023-11-18T05:23:45;94906.09;;;-4.30;100.00
39223;BME280;24936;46.328;11.026;2023-11-18T05:26:11;94915.25;;;-4.19;100.00
39223;BME280;24936;46.328;11.026;2023-11-18T05:28:36;94914.03;;;-4.06;100.00
39223;BME280;24936;46.328;11.026;2023-11-18T05:31:03;94916.91;;;-3.85;100.00
39223;BME280;24936;46.328;11.026;2023-11-18T05:33:30;94934.66;;;-3.76;100.00
39223;BME280;24936;46.328;11.026;2023-11-18T05:35:57;94939.53;;;-3.66;100.00
39223;BME280;24936;46.328;11.026;2023-11-18T05:38:22;94951.75;;;-3.73;100.00
39223;BME280;24936;46.328;11.026;2023-11-18T05:40:49;94940.16;;;-3.88;100.00
39223;BME280;24936;46.328;11.026;2023-11-18T05:43:30;94950.09;;;-4.09;100.00
39223;BME280;24936;46.328;11.026;2023-11-18T05:46:01;94958.69;;;-4.10;100.00
39223;BME280;24936;46.328;11.026;2023-11-18T05:48:47;94958.22;;;-3.91;100.00
39223;BME280;24936;46.328;11.026;2023-11-18T05:51:13;94959.38;;;-3.70;100.00
39223;BME280;24936;46.328;11.026;2023-11-18T05:53:42;94963.94;;;-3.80;100.00
39223;BME280;24936;46.328;11.026;2023-11-18T05:56:11;94958.16;;;-3.88;100.00
39223;BME280;24936;46.328;11.026;2023-11-18T05:58:36;94964.50;;;-4.02;100.00
39223;BME280;24936;46.328;11.026;2023-11-18T06:01:04;94967.34;;;-4.11;100.00
39223;BME280;24936;46.328;11.026;2023-11-18T06:03:30;94962.41;;;-4.20;100.00
39223;BME280;24936;46.328;11.026;2023-11-18T06:05:56;94951.97;;;-4.14;100.00
39223;BME280;24936;46.328;11.026;2023-11-18T06:08:21;94951.56;;;-3.98;100.00
39223;BME280;24936;46.328;11.026;2023-11-18T06:10:48;94960.88;;;-3.94;100.00
39223;BME280;24936;46.328;11.026;2023-11-18T06:13:14;94956.81;;;-4.03;100.00
39223;BME280;24936;46.328;11.026;2023-11-18T06:15:42;94954.28;;;-4.05;100.00
39223;BME280;24936;46.328;11.026;2023-11-18T06:18:08;94955.94;;;-4.02;100.00
39223;BME280;24936;46.328;11.026;2023-11-18T06:20:34;94957.94;;;-4.12;100.00
39223;BME280;24936;46.328;11.026;2023-11-18T06:23:00;94962.38;;;-4.19;100.00
39223;BME280;24936;46.328;11.026;2023-11-18T06:25:26;94964.91;;;-4.17;100.00
39223;BME280;24936;46.328;11.026;2023-11-18T06:27:52;94972.38;;;-4.08;100.00
39223;BME280;24936;46.328;11.026;2023-11-18T06:30:20;94975.69;;;-4.03;100.00
39223;BME280;24936;46.328;11.026;2023-11-18T06:32:46;94974.28;;;-3.50;100.00
39223;BME280;24936;46.328;11.026;2023-11-18T06:35:14;94969.59;;;-3.67;100.00
39223;BME280;24936;46.328;11.026;2023-11-18T06:37:42;94981.25;;;-3.87;100.00
39223;BME280;24936;46.328;11.026;2023-11-18T06:40:08;94991.84;;;-3.97;100.00
39223;BME280;24936;46.328;11.026;2023-11-18T06:42:42;94997.00;;;-3.97;100.00
39223;BME280;24936;46.328;11.026;2023-11-18T06:45:09;95001.78;;;-4.18;100.00
39223;BME280;24936;46.328;11.026;2023-11-18T06:47:35;95002.72;;;-4.22;100.00
39223;BME280;24936;46.328;11.026;2023-11-18T06:50:02;95003.97;;;-4.37;100.00
39223;BME280;24936;46.328;11.026;2023-11-18T06:52:27;95005.03;;;-4.46;100.00
39223;BME280;24936;46.328;11.026;2023-11-18T06:54:53;95004.38;;;-4.54;100.00
39223;BME280;24936;46.328;11.026;2023-11-18T06:57:20;95016.13;;;-4.44;100.00
39223;BME280;24936;46.328;11.026;2023-11-18T06:59:47;95018.75;;;-4.47;100.00
39223;BME280;24936;46.328;11.026;2023-11-18T07:02:12;95015.66;;;-4.62;100.00
39223;BME280;24936;46.328;11.026;2023-11-18T07:04:38;95011.41;;;-4.26;100.00
39223;BME280;24936;46.328;11.026;2023-11-18T07:07:04;95023.47;;;-4.30;100.00
39223;BME280;24936;46.328;11.026;2023-11-18T07:09:29;95031.00;;;-4.21;100.00
39223;BME280;24936;46.328;11.026;2023-11-18T07:12:01;95035.34;;;-4.24;100.00
39223;BME280;24936;46.328;11.026;2023-11-18T07:14:26;95023.34;;;-4.24;100.00
39223;BME280;24936;46.328;11.026;2023-11-18T07:16:53;95023.09;;;-4.13;100.00
39223;BME280;24936;46.328;11.026;2023-11-18T07:19:18;95017.63;;;-4.01;100.00
39223;BME280;24936;46.328;11.026;2023-11-18T07:21:46;95011.56;;;-3.98;100.00
39223;BME280;24936;46.328;11.026;2023-11-18T07:24:11;95009.69;;;-3.91;100.00
39223;BME280;24936;46.328;11.026;2023-11-18T07:26:37;95016.19;;;-3.78;100.00
39223;BME280;24936;46.328;11.026;2023-11-18T07:29:03;95016.38;;;-3.84;100.00
39223;BME280;24936;46.328;11.026;2023-11-18T07:31:28;95017.56;;;-3.64;100.00
39223;BME280;24936;46.328;11.026;2023-11-18T07:33:54;95021.75;;;-3.62;100.00
39223;BME280;24936;46.328;11.026;2023-11-18T07:36:20;95018.88;;;-3.49;100.00
39223;BME280;24936;46.328;11.026;2023-11-18T07:38:46;95015.38;;;-3.47;100.00
39223;BME280;24936;46.328;11.026;2023-11-18T07:41:12;95019.09;;;-3.26;100.00
39223;BME280;24936;46.328;11.026;2023-11-18T07:43:52;95029.09;;;-3.15;100.00
39223;BME280;24936;46.328;11.026;2023-11-18T07:46:22;95034.72;;;-3.02;100.00
39223;BME280;24936;46.328;11.026;2023-11-18T07:48:51;95044.66;;;-2.89;100.00
39223;BME280;24936;46.328;11.026;2023-11-18T07:51:18;95044.63;;;-2.58;100.00
39223;BME280;24936;46.328;11.026;2023-11-18T07:53:47;95047.88;;;-2.53;100.00
39223;BME280;24936;46.328;11.026;2023-11-18T07:56:12;95057.06;;;-2.44;100.00
39223;BME280;24936;46.328;11.026;2023-11-18T07:58:41;95064.66;;;-2.39;100.00
39223;BME280;24936;46.328;11.026;2023-11-18T08:01:11;95067.38;;;-2.16;100.00
39223;BME280;24936;46.328;11.026;2023-11-18T08:03:36;95063.72;;;-2.08;100.00
39223;BME280;24936;46.328;11.026;2023-11-18T08:06:03;95063.53;;;-2.02;100.00
39223;BME280;24936;46.328;11.026;2023-11-18T08:08:34;95063.47;;;-1.74;100.00
39223;BME280;24936;46.328;11.026;2023-11-18T08:11:04;95049.94;;;-1.55;100.00
39223;BME280;24936;46.328;11.026;2023-11-18T08:13:29;95053.66;;;-1.39;100.00
39223;BME280;24936;46.328;11.026;2023-11-18T08:15:56;95055.25;;;-1.34;100.00
39223;BME280;24936;46.328;11.026;2023-11-18T08:18:23;95052.91;;;-1.17;100.00
39223;BME280;24936;46.328;11.026;2023-11-18T08:20:49;95047.91;;;-1.21;100.00
39223;BME280;24936;46.328;11.026;2023-11-18T08:23:15;95046.47;;;-1.05;100.00
39223;BME280;24936;46.328;11.026;2023-11-18T08:25:40;95036.50;;;-0.46;100.00
39223;BME280;24936;46.328;11.026;2023-11-18T08:28:07;95035.84;;;-0.07;100.00
39223;BME280;24936;46.328;11.026;2023-11-18T08:30:34;95029.19;;;0.30;100.00
39223;BME280;24936;46.328;11.026;2023-11-18T08:32:59;95026.41;;;0.96;100.00
39223;BME280;24936;46.328;11.026;2023-11-18T08:35:25;95013.66;;;1.10;100.00
39223;BME280;24936;46.328;11.026;2023-11-18T08:37:51;95021.78;;;1.21;100.00
39223;BME280;24936;46.328;11.026;2023-11-18T08:40:17;95020.63;;;1.85;100.00
39223;BME280;24936;46.328;11.026;2023-11-18T08:42:51;95005.13;;;2.71;100.00
39223;BME280;24936;46.328;11.026;2023-11-18T08:45:23;95005.78;;;4.04;100.00
39223;BME280;24936;46.328;11.026;2023-11-18T08:48:00;95012.91;;;5.21;100.00
39223;BME280;24936;46.328;11.026;2023-11-18T08:50:37;95017.72;;;6.12;100.00
39223;BME280;24936;46.328;11.026;2023-11-18T08:53:05;95018.59;;;8.30;100.00
39223;BME280;24936;46.328;11.026;2023-11-18T08:55:31;95035.53;;;10.22;100.00
39223;BME280;24936;46.328;11.026;2023-11-18T08:58:16;95048.72;;;9.08;100.00
39223;BME280;24936;46.328;11.026;2023-11-18T09:00:47;95052.09;;;9.56;100.00
39223;BME280;24936;46.328;11.026;2023-11-18T09:03:17;95044.78;;;10.60;100.00
39223;BME280;24936;46.328;11.026;2023-11-18T09:05:46;95032.84;;;10.01;100.00
39223;BME280;24936;46.328;11.026;2023-11-18T09:08:42;95014.66;;;8.24;100.00
39223;BME280;24936;46.328;11.026;2023-11-18T09:11:09;95009.56;;;6.83;100.00
39223;BME280;24936;46.328;11.026;2023-11-18T09:13:43;95003.16;;;7.39;100.00
39223;BME280;24936;46.328;11.026;2023-11-18T09:16:10;95001.66;;;8.22;100.00
39223;BME280;24936;46.328;11.026;2023-11-18T09:18:37;95001.22;;;8.29;100.00
39223;BME280;24936;46.328;11.026;2023-11-18T09:21:05;95013.25;;;8.07;100.00
39223;BME280;24936;46.328;11.026;2023-11-18T09:23:33;95011.47;;;7.83;100.00
39223;BME280;24936;46.328;11.026;2023-11-18T09:26:03;95011.78;;;8.03;100.00
39223;BME280;24936;46.328;11.026;2023-11-18T09:28:40;95008.63;;;6.84;100.00
39223;BME280;24936;46.328;11.026;2023-11-18T09:31:06;94991.91;;;6.61;100.00
39223;BME280;24936;46.328;11.026;2023-11-18T09:33:36;94994.22;;;6.92;100.00
39223;BME280;24936;46.328;11.026;2023-11-18T09:36:03;94996.41;;;7.11;100.00
39223;BME280;24936;46.328;11.026;2023-11-18T09:38:34;94999.03;;;7.98;100.00
39223;BME280;24936;46.328;11.026;2023-11-18T09:41:07;95003.38;;;7.49;100.00
39223;BME280;24936;46.328;11.026;2023-11-18T09:43:40;94993.66;;;7.25;100.00
39223;BME280;24936;46.328;11.026;2023-11-18T09:46:15;94998.16;;;7.23;100.00
39223;BME280;24936;46.328;11.026;2023-11-18T09:49:12;95001.47;;;7.64;100.00
39223;BME280;24936;46.328;11.026;2023-11-18T09:51:44;94991.72;;;7.66;100.00
39223;BME280;24936;46.328;11.026;2023-11-18T10:00:04;94984.06;;;6.21;100.00
39223;BME280;24936;46.328;11.026;2023-11-18T10:02:52;94966.78;;;6.05;100.00
39223;BME280;24936;46.328;11.026;2023-11-18T10:05:22;94964.38;;;6.15;100.00
39223;BME280;24936;46.328;11.026;2023-11-18T10:07:48;94963.38;;;6.18;100.00
39223;BME280;24936;46.328;11.026;2023-11-18T10:10:17;94950.66;;;6.52;100.00
39223;BME280;24936;46.328;11.026;2023-11-18T10:12:46;94956.50;;;6.42;100.00
39223;BME280;24936;46.328;11.026;2023-11-18T10:15:20;94964.44;;;6.28;100.00
39223;BME280;24936;46.328;11.026;2023-11-18T10:17:49;94967.38;;;6.49;100.00
39223;BME280;24936;46.328;11.026;2023-11-18T10:23:08;94955.94;;;7.28;100.00
39223;BME280;24936;46.328;11.026;2023-11-18T10:25:37;94964.56;;;7.91;100.00
39223;BME280;24936;46.328;11.026;2023-11-18T10:28:07;94970.00;;;8.37;100.00
39223;BME280;24936;46.328;11.026;2023-11-18T10:30:43;94981.38;;;8.84;100.00
39223;BME280;24936;46.328;11.026;2023-11-18T10:33:14;94976.88;;;8.26;100.00
39223;BME280;24936;46.328;11.026;2023-11-18T10:35:49;94970.97;;;8.36;100.00
39223;BME280;24936;46.328;11.026;2023-11-18T10:38:17;94968.84;;;8.41;100.00
39223;BME280;24936;46.328;11.026;2023-11-18T10:40:42;94976.06;;;8.62;100.00
39223;BME280;24936;46.328;11.026;2023-11-18T10:43:09;94971.13;;;9.04;100.00
39223;BME280;24936;46.328;11.026;2023-11-18T10:45:36;94967.69;;;9.15;100.00
39223;BME280;24936;46.328;11.026;2023-11-18T10:48:08;94979.28;;;9.12;100.00
39223;BME280;24936;46.328;11.026;2023-11-18T10:50:34;94964.09;;;8.22;100.00
39223;BME280;24936;46.328;11.026;2023-11-18T10:53:03;94970.56;;;7.80;100.00
39223;BME280;24936;46.328;11.026;2023-11-18T10:55:39;94965.94;;;8.33;100.00
39223;BME280;24936;46.328;11.026;2023-11-18T10:58:08;94968.72;;;9.01;100.00
39223;BME280;24936;46.328;11.026;2023-11-18T11:00:47;94959.06;;;9.36;100.00
39223;BME280;24936;46.328;11.026;2023-11-18T11:03:18;94944.22;;;9.69;100.00
39223;BME280;24936;46.328;11.026;2023-11-18T11:05:44;94957.41;;;9.34;100.00
39223;BME280;24936;46.328;11.026;2023-11-18T11:08:14;94953.72;;;9.26;100.00
39223;BME280;24936;46.328;11.026;2023-11-18T11:10:41;94949.88;;;9.53;100.00
39223;BME280;24936;46.328;11.026;2023-11-18T11:13:10;94947.88;;;8.99;100.00
39223;BME280;24936;46.328;11.026;2023-11-18T11:15:41;94954.63;;;9.82;97.17
39223;BME280;24936;46.328;11.026;2023-11-18T11:18:12;94947.88;;;10.54;67.47
39223;BME280;24936;46.328;11.026;2023-11-18T11:21:02;94943.47;;;11.38;68.47
39223;BME280;24936;46.328;11.026;2023-11-18T11:23:46;94943.22;;;11.82;67.12
39223;BME280;24936;46.328;11.026;2023-11-18T11:29:26;94949.47;;;13.36;55.36
39223;BME280;24936;46.328;11.026;2023-11-18T11:34:29;94940.16;;;13.42;52.02
39223;BME280;24936;46.328;11.026;2023-11-18T11:36:59;94937.19;;;13.07;51.69
39223;BME280;24936;46.328;11.026;2023-11-18T11:39:26;94929.31;;;13.45;51.81
39223;BME280;24936;46.328;11.026;2023-11-18T11:41:55;94925.91;;;12.58;56.09
39223;BME280;24936;46.328;11.026;2023-11-18T11:44:21;94936.91;;;13.10;61.62
39223;BME280;24936;46.328;11.026;2023-11-18T11:46:54;94929.16;;;13.74;53.17
39223;BME280;24936;46.328;11.026;2023-11-18T11:49:21;94927.16;;;13.11;64.52
39223;BME280;24936;46.328;11.026;2023-11-18T11:52:17;94915.19;;;11.40;65.63
39223;BME280;24936;46.328;11.026;2023-11-18T11:57:38;94908.53;;;12.06;66.71
39223;BME280;24936;46.328;11.026;2023-11-18T12:00:04;94911.06;;;12.37;56.79
39223;BME280;24936;46.328;11.026;2023-11-18T12:02:47;94922.72;;;14.05;51.44
39223;BME280;24936;46.328;11.026;2023-11-18T12:05:16;94919.94;;;13.13;54.67
39223;BME280;24936;46.328;11.026;2023-11-18T12:07:45;94926.66;;;12.97;54.19
39223;BME280;24936;46.328;11.026;2023-11-18T12:10:11;94926.50;;;12.32;58.43
39223;BME280;24936;46.328;11.026;2023-11-18T12:12:45;94919.00;;;12.17;62.02
39223;BME280;24936;46.328;11.026;2023-11-18T12:15:11;94912.13;;;11.25;69.72
39223;BME280;24936;46.328;11.026;2023-11-18T12:20:40;94888.47;;;11.54;75.84
39223;BME280;24936;46.328;11.026;2023-11-18T12:23:35;94887.38;;;10.00;87.92
39223;BME280;24936;46.328;11.026;2023-11-18T12:26:02;94894.03;;;10.58;88.22
39223;BME280;24936;46.328;11.026;2023-11-18T12:28:50;94884.06;;;9.54;100.00
39223;BME280;24936;46.328;11.026;2023-11-18T12:31:39;94883.94;;;9.56;100.00
39223;BME280;24936;46.328;11.026;2023-11-18T12:34:04;94883.66;;;9.15;100.00
39223;BME280;24936;46.328;11.026;2023-11-18T12:43:00;94859.41;;;11.25;99.86
39223;BME280;24936;46.328;11.026;2023-11-18T12:45:42;94864.47;;;11.57;82.71
39223;BME280;24936;46.328;11.026;2023-11-18T12:48:14;94851.97;;;11.50;86.07
39223;BME280;24936;46.328;11.026;2023-11-18T12:50:42;94852.91;;;11.39;88.39
39223;BME280;24936;46.328;11.026;2023-11-18T12:53:11;94844.38;;;11.96;83.08
39223;BME280;24936;46.328;11.026;2023-11-18T12:55:40;94840.31;;;12.60;71.03
39223;BME280;24936;46.328;11.026;2023-11-18T12:58:07;94843.44;;;12.16;72.31
39223;BME280;24936;46.328;11.026;2023-11-18T13:00:32;94842.06;;;12.69;63.24
39223;BME280;24936;46.328;11.026;2023-11-18T13:03:00;94834.66;;;11.67;74.11
39223;BME280;24936;46.328;11.026;2023-11-18T13:05:25;94830.72;;;12.49;92.10
39223;BME280;24936;46.328;11.026;2023-11-18T13:07:55;94833.19;;;11.23;78.28
39223;BME280;24936;46.328;11.026;2023-11-18T13:10:22;94840.50;;;11.60;82.88
39223;BME280;24936;46.328;11.026;2023-11-18T13:12:49;94831.19;;;11.86;85.43
39223;BME280;24936;46.328;11.026;2023-11-18T13:15:16;94820.38;;;11.89;77.47
39223;BME280;24936;46.328;11.026;2023-11-18T13:17:57;94827.00;;;12.42;80.50